Time;durP1;ratioP1;P1;durP2;ratioP2;P2;SDS_P1;SDS_P2;PMS_P1;PMS_P2;Temp;Humidity;BMP_temperature;BMP_pressure;BME280_temperature;BME280_humidity;BME280_pressure;Samples;Min_cycle;Max_cycle;Signal;HPM_P1;HPM_P2
2023/10/12 00:00:27;;;;;;;;;;;;;;;;;;5094742;28;19912;-70
2023/10/12 00:02:57;;;;;;;;;;;;;;;;;;5094325;28;19915;-70
2023/10/12 00:05:27;;;;;;;;;;;;;;;;;;5094621;28;20314;-70
2023/10/12 00:07:54;;;;;;;;;;;;;;;;;;5094529;28;19915;-70
2023/10/12 00:10:21;;;;;;;;;;;;;;;;;;5094089;28;19908;-70
2023/10/12 00:12:47;;;;;;;;;;;;;;;;;;5094484;28;19908;-70
2023/10/12 00:15:29;;;;;;;;;;;;;;;;;;5093060;28;20301;-70
2023/10/12 00:17:55;;;;;;;;;;;;;;;;;;5094016;28;19970;-70
2023/10/12 00:22:58;;;;;;;;;;;;;;;;;;5094348;28;20003;-70
2023/10/12 00:25:25;;;;;;;;;;;;;;;;;;5093881;28;19912;-70
2023/10/12 00:27:51;;;;;;;;;;;;;;;;;;5094127;28;19915;-69
2023/10/12 00:30:17;;;;;;;;;;;;;;;;;;5093774;28;19908;-70
2023/10/12 00:32:43;;;;;;;;;;;;;;;;;;5094167;28;19961;-69
2023/10/12 00:35:10;;;;;;;;;;;;;;;;;;5094141;28;19923;-69
2023/10/12 00:37:37;;;;;;;;;;;;;;;;;;5094172;28;19934;-69
2023/10/12 00:40:22;;;;;;;;;;;;;;;;;;5094117;28;20276;-70
2023/10/12 00:42:51;;;;;;;;;;;;;;;;;;5092820;28;19915;-69
2023/10/12 00:45:20;;;;;;;;;;;;;;;;;;5093819;28;19909;-69
2023/10/12 00:47:48;;;;;;;;;;;;;;;;;;5094226;28;19908;-69
2023/10/12 00:50:15;;;;;;;;;;;;;;;;;;5092887;28;19915;-69
2023/10/12 00:52:57;;;;;;;;;;;;;;;;;;5093661;28;19922;-69
2023/10/12 00:55:34;;;;;;;;;;;;;;;;;;5093747;28;20007;-70
2023/10/12 00:58:00;;;;;;;;;;;;;;;;;;5094035;28;19916;-69
2023/10/12 01:00:26;;;;;;;;;;;;;;;;;;5093439;28;19908;-69
2023/10/12 01:03:27;;;;;;;;;;;;;;;;;;5092639;28;19948;-70
2023/10/12 01:06:12;;;;;;;;;;;;;;;;;;5092290;28;19908;-69
2023/10/12 01:08:42;;;;;;;;;;;;;;;;;;5093907;28;19935;-69
2023/10/12 01:11:08;;;;;;;;;;;;;;;;;;5094126;28;20257;-70
2023/10/12 01:13:35;;;;;;;;;;;;;;;;;;5093286;28;19918;-70
2023/10/12 01:18:50;;;;;;;;;;;;;;;;;;5082321;28;20360;-69
2023/10/12 01:21:16;;;;;;;;;;;;;;;;;;5093294;28;19979;-70
2023/10/12 01:23:50;;;;;;;;;;;;;;;;;;5093665;28;19912;-70
2023/10/12 01:26:16;;;;;;;;;;;;;;;;;;5093973;28;19919;-70
2023/10/12 01:28:45;;;;;;;;;;;;;;;;;;5093231;28;19912;-70
2023/10/12 01:31:12;;;;;;;;;;;;;;;;;;5092253;28;20347;-70
2023/10/12 01:33:41;;;;;;;;;;;;;;;;;;5091808;28;19916;-70
2023/10/12 01:36:07;;;;;;;;;;;;;;;;;;5093527;28;20017;-70
2023/10/12 01:38:37;;;;;;;;;;;;;;;;;;5092243;28;19943;-70
2023/10/12 01:41:03;;;;;;;;;;;;;;;;;;5095151;28;20395;-70
2023/10/12 01:43:35;;;;;;;;;;;;;;;;;;5097635;28;20002;-70
2023/10/12 01:46:08;;;;;;;;;;;;;;;;;;5097406;28;19912;-70
2023/10/12 01:48:34;;;;;;;;;;;;;;;;;;5097093;28;19998;-70
2023/10/12 01:51:02;;;;;;;;;;;;;;;;;;5097225;28;19950;-70
2023/10/12 01:53:32;;;;;;;;;;;;;;;;;;5095628;28;19931;-70
2023/10/12 01:56:09;;;;;;;;;;;;;;;;;;5095531;28;19931;-70
2023/10/12 01:58:35;;;;;;;;;;;;;;;;;;5097432;28;19915;-70
2023/10/12 02:01:08;;;;;;;;;;;;;;;;;;5097021;28;19914;-70
2023/10/12 02:03:37;;;;;;;;;;;;;;;;;;5096615;28;19915;-70
2023/10/12 02:06:05;;;;;;;;;;;;;;;;;;5095729;28;19908;-70
2023/10/12 02:08:45;;;;;;;;;;;;;;;;;;5095598;28;19962;-70
2023/10/12 02:11:25;;;;;;;;;;;;;;;;;;5095567;28;19915;-70
2023/10/12 02:13:51;;;;;;;;;;;;;;;;;;5095732;28;19969;-70
2023/10/12 02:19:19;;;;;;;;;;;;;;;;;;5091727;28;19998;-70
2023/10/12 02:21:46;;;;;;;;;;;;;;;;;;5096639;28;20261;-70
2023/10/12 02:24:13;;;;;;;;;;;;;;;;;;5096180;28;19908;-70
2023/10/12 02:27:00;;;;;;;;;;;;;;;;;;5097000;28;19947;-70
2023/10/12 02:29:26;;;;;;;;;;;;;;;;;;5096303;28;19915;-70
2023/10/12 02:34:18;;;;;;;;;;;;;;;;;;5096685;28;19966;-70
2023/10/12 02:37:00;;;;;;;;;;;;;;;;;;5096409;28;19908;-70
2023/10/12 02:39:27;;;;;;;;;;;;;;;;;;5096473;28;19908;-70
2023/10/12 02:42:10;;;;;;;;;;;;;;;;;;5096231;28;19908;-69
2023/10/12 02:44:36;;;;;;;;;;;;;;;;;;5096237;28;19908;-69
2023/10/12 02:47:12;;;;;;;;;;;;;;;;;;5094871;28;19975;-69
2023/10/12 02:49:40;;;;;;;;;;;;;;;;;;5096126;28;19908;-69
2023/10/12 02:52:08;;;;;;;;;;;;;;;;;;5095632;28;19908;-69
2023/10/12 02:54:49;;;;;;;;;;;;;;;;;;5095752;28;19920;-69
2023/10/12 02:57:15;;;;;;;;;;;;;;;;;;5096063;28;19996;-69
2023/10/12 02:59:41;;;;;;;;;;;;;;;;;;5094187;28;19908;-70
2023/10/12 03:02:41;;;;;;;;;;;;;;;;;;5095867;28;19915;-70
2023/10/12 03:04:59;;;;;;;;;;;;;;;;;;5094162;28;20368;-70
2023/10/12 03:07:27;;;;;;;;;;;;;;;;;;5095732;28;20330;-71
2023/10/12 03:09:58;;;;;;;;;;;;;;;;;;5095843;28;19958;-70
2023/10/12 03:12:24;;;;;;;;;;;;;;;;;;5094012;28;20273;-70
2023/10/12 03:14:53;;;;;;;;;;;;;;;;;;5095535;28;20382;-70
2023/10/12 03:17:19;;;;;;;;;;;;;;;;;;5095606;28;19912;-70
2023/10/12 03:19:55;;;;;;;;;;;;;;;;;;5093898;28;20429;-70
2023/10/12 03:22:34;;;;;;;;;;;;;;;;;;5095575;28;20007;-71
2023/10/12 03:25:14;;;;;;;;;;;;;;;;;;5094215;28;19911;-71
2023/10/12 03:27:40;;;;;;;;;;;;;;;;;;5095101;28;20272;-71
2023/10/12 03:30:08;;;;;;;;;;;;;;;;;;5095329;28;19908;-70
2023/10/12 03:32:34;;;;;;;;;;;;;;;;;;5095259;28;20280;-70
2023/10/12 03:35:00;;;;;;;;;;;;;;;;;;5094880;28;19923;-70
2023/10/12 03:37:45;;;;;;;;;;;;;;;;;;5095642;28;19915;-70
2023/10/12 03:43:27;;;;;;;;;;;;;;;;;;5082613;28;19908;-70
2023/10/12 03:49:04;;;;;;;;;;;;;;;;;;5089469;28;20396;-68
2023/10/12 03:51:42;;;;;;;;;;;;;;;;;;5093528;28;19994;-68
2023/10/12 03:54:18;;;;;;;;;;;;;;;;;;5093131;28;19931;-69
2023/10/12 03:56:44;;;;;;;;;;;;;;;;;;5095041;28;20384;-70
2023/10/12 03:59:12;;;;;;;;;;;;;;;;;;5094878;28;19944;-68
2023/10/12 04:01:41;;;;;;;;;;;;;;;;;;5094332;28;19908;-70
2023/10/12 04:09:31;;;;;;;;;;;;;;;;;;5094033;28;19962;-68
2023/10/12 04:12:11;;;;;;;;;;;;;;;;;;5093021;28;19930;-68
2023/10/12 04:14:53;;;;;;;;;;;;;;;;;;5094576;28;19930;-69
2023/10/12 04:25:14;;;;;;;;;;;;;;;;;;5094135;28;19908;-69
2023/10/12 04:27:57;;;;;;;;;;;;;;;;;;5094195;28;20003;-69
2023/10/12 04:30:32;;;;;;;;;;;;;;;;;;5093063;28;19930;-69
2023/10/12 04:33:15;;;;;;;;;;;;;;;;;;5094259;28;19912;-69
2023/10/12 04:43:52;;;;;;;;;;;;;;;;;;5093279;28;19914;-69
2023/10/12 04:48:51;;;;;;;;;;;;;;;;;;5093942;28;19908;-69
2023/10/12 04:51:21;;;;;;;;;;;;;;;;;;5092291;28;19909;-69
2023/10/12 04:53:57;;;;;;;;;;;;;;;;;;5092484;28;19926;-72
2023/10/12 04:56:25;;;;;;;;;;;;;;;;;;5090479;28;20012;-70
2023/10/12 04:58:57;;;;;;;;;;;;;;;;;;5090806;28;19954;-70
2023/10/12 05:01:29;;;;;;;;;;;;;;;;;;5092199;28;20028;-70
2023/10/12 05:04:24;;;;;;;;;;;;;;;;;;5092954;28;20002;-71
2023/10/12 05:09:34;;;;;;;;;;;;;;;;;;5093358;28;19996;-70
2023/10/12 05:12:00;;;;;;;;;;;;;;;;;;5090232;28;19943;-70
2023/10/12 05:14:26;;;;;;;;;;;;;;;;;;5093223;28;19923;-71
2023/10/12 05:16:52;;;;;;;;;;;;;;;;;;5093991;28;19918;-66
2023/10/12 05:19:19;;;;;;;;;;;;;;;;;;5097648;28;19920;-66
2023/10/12 05:21:44;;;;;;;;;;;;;;;;;;5091644;28;19961;-67
2023/10/12 05:24:11;;;;;;;;;;;;;;;;;;5083047;28;19913;-67
2023/10/12 05:26:37;;;;;;;;;;;;;;;;;;5103874;28;19919;-65
2023/10/12 05:34:46;;;;;;;;;;;;;;;;;;5059332;28;19971;-67
2023/10/12 05:39:46;;;;;;;;;;;;;;;;;;5096271;28;19959;-67
2023/10/12 05:42:14;;;;;;;;;;;;;;;;;;5081064;28;19999;-67
2023/10/12 05:44:43;;;;;;;;;;;;;;;;;;5090931;28;19920;-67
2023/10/12 05:47:11;;;;;;;;;;;;;;;;;;5092466;28;19916;-70
2023/10/12 05:49:37;;;;;;;;;;;;;;;;;;5089304;28;19912;-71
2023/10/12 05:52:05;;;;;;;;;;;;;;;;;;5089533;28;19982;-71
2023/10/12 05:54:31;;;;;;;;;;;;;;;;;;5092009;28;20423;-71
2023/10/12 05:57:03;;;;;;;;;;;;;;;;;;5094158;28;19919;-70
2023/10/12 05:59:30;;;;;;;492.65;258.77;;;;;;;;;;5093047;28;20376;-71
2023/10/12 06:01:56;;;;;;;531.47;252.52;;;;;;;;;;5094497;28;20024;-71
2023/10/12 06:04:22;;;;;;;;;;;;;;;;;;5093817;28;20131;-70
2023/10/12 06:06:51;;;;;;;487.58;246.05;;;;;;;;;;5095190;28;20070;-69
2023/10/12 06:09:24;;;;;;;;;;;;;;;;;;5074780;28;20415;-70
2023/10/12 06:11:53;;;;;;;370.45;230.80;;;;;;;;;;5094312;28;20519;-71
2023/10/12 06:14:25;;;;;;;91.90;83.80;;;;;;;;;;5094076;28;20032;-72
2023/10/12 06:17:02;;;;;;;;;;;;;;;;;;5092084;28;20373;-70
2023/10/12 06:19:32;;;;;;;;;;;;;;;;;;5101256;27;19916;-70
2023/10/12 06:22:13;;;;;;;;;;;;;;;;;;5093213;28;19912;-69
2023/10/12 06:24:41;;;;;;;;;;;;;;;;;;5082560;28;19916;-70
2023/10/12 06:29:45;;;;;;;;;;;;;;;;;;5091413;28;20018;-69
2023/10/12 06:32:17;;;;;;;;;;;;;;;;;;5093451;28;19912;-70
2023/10/12 06:34:43;;;;;;;;;;;;;;;;;;5103313;28;20268;-71
2023/10/12 06:37:49;;;;;;;;;;;;;;;;;;5099982;28;19916;-69
2023/10/12 06:42:45;;;;;;;;;;;;;;;;;;5091735;28;19915;-70
2023/10/12 06:45:15;;;;;;;;;;;;;;;;;;5103700;28;19916;-72
2023/10/12 06:47:41;;;;;;;;;;;;;;;;;;5092050;28;19915;-71
2023/10/12 06:50:14;;;;;;;400.13;234.63;;;;;;;;;;5089896;28;20387;-70
2023/10/12 06:52:40;;;;;;;;;;;;;;;;;;5099478;28;20260;-71
2023/10/12 06:55:08;;;;;;;;;;;;;;;;;;5094149;28;19916;-69
2023/10/12 06:57:43;;;;;;;;;;;;;;;;;;5089066;28;19912;-70
2023/10/12 07:02:35;;;;;;;;;;;;;;;;;;5090567;28;20386;-68
2023/10/12 07:05:03;;;;;;;;;;;;;;;;;;5090850;28;19949;-69
2023/10/12 07:07:36;;;;;;;410.38;237.07;;;;;;;;;;5095344;28;20936;-69
2023/10/12 07:10:53;;;;;;;;;;;;;;;;;;5062842;28;19923;-71
2023/10/12 07:13:25;;;;;;;;;;;;;;;;;;5062245;28;19920;-73
2023/10/12 07:15:51;;;;;;;;;;;;;;;;;;5064158;28;19945;-71
2023/10/12 07:18:17;;;;;;;;;;;;;;;;;;5063123;28;19913;-70
2023/10/12 07:20:46;;;;;;;;;;;;;;;;;;5064067;28;20374;-71
2023/10/12 07:23:15;;;;;;;;;;;;;;;;;;5064293;28;19927;-71
2023/10/12 07:26:12;;;;;;;180.45;160.48;;;;;;;;;;5083162;27;2207453;-70
2023/10/12 07:28:41;;;;;;;;;;;;;;;;;;5137063;27;20035;-72
2023/10/12 07:40:17;;;;;;;;;;;;;;;;;;5130534;28;19910;-70
2023/10/12 07:42:00;;;;;;;;;;;;;;;;;;5107059;27;19911;-69
2023/10/12 07:46:24;;;;;;;;;;;;;;;;;;5119307;27;19924;-69
2023/10/12 07:48:50;;;;;;;;;;;;;;;;;;5107188;28;19916;-69
2023/10/12 07:51:24;;;;;;;;;;;;;;;;;;5104061;28;19916;-69
2023/10/12 07:53:56;;;;;;;;;;;;;;;;;;5093605;28;19920;-70
2023/10/12 07:56:22;;;;;;;;;;;;;;;;;;5088051;28;19917;-71
2023/10/12 07:58:57;;;;;;;;;;;;;;;;;;5096301;28;19931;-69
2023/10/12 08:01:38;;;;;;;;;;;;;;;;;;5093643;28;19916;-70
2023/10/12 08:08:33;;;;;;;;;;;;;;;;;;5096448;27;19917;-70
2023/10/12 08:11:00;;;;;;;;;;;;;;;;;;5096123;28;19915;-71
2023/10/12 08:13:26;;;;;;;;;;;;;;;;;;5096356;28;20360;-72
2023/10/12 08:15:56;;;;;;;;;;;;;;;;;;5088191;28;19916;-68
2023/10/12 08:19:28;;;;;;;543.28;276.48;;;;;;;;;;5069558;28;20448;-69
2023/10/12 08:21:58;;;;;;;;;;;;;;;;;;5058011;28;20025;-70
2023/10/12 08:24:53;;;;;;;;;;;;;;;;;;5084129;28;19947;-71
2023/10/12 08:27:19;;;;;;;;;;;;;;;;;;5083272;28;19946;-72
2023/10/12 08:32:15;;;;;;;;;;;;;;;;;;5086817;28;19912;-70
2023/10/12 08:39:39;;;;;;;;;;;;;;;;;;5088195;28;19912;-70
2023/10/12 08:44:49;;;;;;;;;;;;;;;;;;5089265;28;19955;-71
2023/10/12 08:52:27;;;;;;;;;;;;;;;;;;5087325;28;19953;-70
2023/10/12 08:54:53;;;;;;;;;;;;;;;;;;5089013;28;19912;-71
2023/10/12 08:57:19;;;;;;;;;;;;;;;;;;5087038;28;19958;-68
2023/10/12 08:59:47;;;;;;;;;;;;;;;;;;5098369;28;19985;-69
2023/10/12 09:02:20;;;;;;;;;;;;;;;;;;5105616;28;19969;-69
2023/10/12 09:09:03;;;;;;;;;;;;;;;;;;5124223;27;19912;-68
2023/10/12 09:11:35;;;;;;;;;;;;;;;;;;5107805;28;19978;-70
2023/10/12 09:14:11;;;;;;;;;;;;;;;;;;5104790;28;20332;-70
2023/10/12 09:16:37;;;;;;;;;;;;;;;;;;5079191;28;20041;-69
2023/10/12 09:19:07;;;;;;;;;;;;;;;;;;5108161;28;19912;-68
2023/10/12 09:21:39;;;;;;;;;;;;;;;;;;5108896;28;19919;-68
2023/10/12 09:24:06;;;;;;;;;;;;;;;;;;5105609;28;19916;-68
2023/10/12 09:26:33;;;;;;;;;;;;;;;;;;5107635;28;19920;-70
2023/10/12 09:36:29;;;;;;;;;;;;;;;;;;5099815;28;20000;-68
2023/10/12 09:39:00;;;;;;;;;;;;;;;;;;5103369;28;20388;-69
2023/10/12 09:41:26;;;;;;;;;;;;;;;;;;5087035;28;19912;-70
2023/10/12 09:43:54;;;;;;;;;;;;;;;;;;5106663;28;19912;-69
2023/10/12 09:46:23;;;;;;;;;;;;;;;;;;5087999;28;19962;-69
2023/10/12 09:48:49;;;;;;;;;;;;;;;;;;5106437;28;20014;-72
2023/10/12 09:51:18;;;;;;;;;;;;;;;;;;5106265;28;19920;-71
2023/10/12 09:56:15;;;;;;;;;;;;;;;;;;5126949;27;20315;-72
2023/10/12 09:58:50;;;;;;;;;;;;;;;;;;5114835;27;20319;-68
2023/10/12 10:01:17;;;;;;;;;;;;;;;;;;5123372;28;19923;-70
2023/10/12 10:03:49;;;;;;;;;;;;;;;;;;5128214;28;19926;-71
2023/10/12 10:11:35;;;;;;;;;;;;;;;;;;5128846;28;19919;-71
2023/10/12 10:14:03;;;;;;;;;;;;;;;;;;5129276;28;19923;-72
2023/10/12 10:16:37;;;;;;;;;;;;;;;;;;5105538;28;19912;-71
2023/10/12 10:19:14;;;;;;;;;;;;;;;;;;5115858;28;19994;-71
2023/10/12 10:21:42;;;;;;;;;;;;;;;;;;5114161;28;20592;-72
2023/10/12 10:24:12;;;;;;;;;;;;;;;;;;5118349;28;20274;-71
2023/10/12 10:26:38;;;;;;;;;;;;;;;;;;5106256;28;20043;-71
2023/10/12 10:29:17;;;;;;;;;;;;;;;;;;5129507;28;20398;-71
2023/10/12 10:31:43;;;;;;;;;;;;;;;;;;5128526;28;19943;-71
2023/10/12 10:34:09;;;;;;;;;;;;;;;;;;5128946;28;20294;-72
2023/10/12 10:36:35;;;;;;;;;;;;;;;;;;5109416;28;19908;-71
2023/10/12 10:39:04;;;;;;;;;;;;;;;;;;5128704;28;19908;-71
2023/10/12 10:44:21;;;;;;;;;;;;;;;;;;5123178;28;19914;-70
2023/10/12 10:46:47;;;;;;;;;;;;;;;;;;5119759;27;19908;-71
2023/10/12 10:49:17;;;;;;;;;;;;;;;;;;5118085;27;19919;-71
2023/10/12 10:51:43;;;;;;;;;;;;;;;;;;5105296;28;19969;-70
2023/10/12 10:54:18;;;;;;;;;;;;;;;;;;5107215;28;19920;-68
2023/10/12 10:56:47;;;;;;;;;;;;;;;;;;5118967;27;19919;-64
2023/10/12 10:59:13;;;;;;;;;;;;;;;;;;5123935;27;19922;-65
2023/10/12 11:01:48;;;;;;;;;;;;;;;;;;5108925;28;19911;-66
2023/10/12 11:07:02;;;;;;;;;;;;;;;;;;5114917;28;19911;-65
2023/10/12 11:09:31;;;;;;;;;;;;;;;;;;5112877;28;19956;-66
2023/10/12 11:12:00;;;;;;;;;;;;;;;;;;5113241;28;19958;-67
2023/10/12 11:14:26;;;;;;;;;;;;;;;;;;5113533;28;20403;-68
2023/10/12 11:16:54;;;;;;;;;;;;;;;;;;5111581;28;20028;-67
2023/10/12 11:19:23;;;;;;;;;;;;;;;;;;5113358;28;19914;-68
2023/10/12 11:21:52;;;;;;;;;;;;;;;;;;5114261;28;20365;-67
2023/10/12 11:24:18;;;;;;;;;;;;;;;;;;5112427;28;20325;-66
2023/10/12 11:26:45;;;;;;;;;;;;;;;;;;5094818;28;19930;-67
2023/10/12 11:29:11;;;;;;;;;;;;;;;;;;5113767;28;19930;-68
2023/10/12 11:31:37;;;;;;;;;;;;;;;;;;5112820;28;20363;-67
2023/10/12 11:34:11;;;;;;;;;;;;;;;;;;5111365;28;20813;-70
2023/10/12 11:36:37;;;;;;;;;;;;;;;;;;5113581;28;19912;-69
2023/10/12 11:39:04;;;;;;;;;;;;;;;;;;5114158;28;20359;-69
2023/10/12 11:41:30;;;;;;;;;;;;;;;;;;5114276;28;19915;-69
2023/10/12 11:44:05;;;;;;;;;;;;;;;;;;5114450;28;19908;-69
2023/10/12 11:46:31;;;;;;;;;;;;;;;;;;5114259;28;20331;-69
2023/10/12 11:48:57;;;;;;;;;;;;;;;;;;5114249;28;19908;-68
2023/10/12 11:51:23;;;;;;;;;;;;;;;;;;5115462;28;19915;-69
2023/10/12 11:53:53;;;;;;;;;;;;;;;;;;5115316;28;20006;-69
2023/10/12 11:56:22;;;;;;;;;;;;;;;;;;5115162;28;19958;-68
2023/10/12 11:58:54;;;;;;;;;;;;;;;;;;5113327;28;20034;-67
2023/10/12 12:01:20;;;;;;;;;;;;;;;;;;5112920;28;19918;-68
2023/10/12 12:03:47;;;;;;;;;;;;;;;;;;5114107;28;20006;-68
2023/10/12 12:06:18;;;;;;;;;;;;;;;;;;5096091;28;20295;-67
2023/10/12 12:08:44;;;;;;;;;;;;;;;;;;5112980;28;19912;-67
2023/10/12 12:11:13;;;;;;;;;;;;;;;;;;5103903;28;19918;-67
2023/10/12 12:13:48;;;;;;;;;;;;;;;;;;5111573;28;19944;-67
2023/10/12 12:16:20;;;;;;;;;;;;;;;;;;5112710;28;19919;-67
2023/10/12 12:18:49;;;;;;;;;;;;;;;;;;5111557;28;19947;-68
2023/10/12 12:21:17;;;;;;;;;;;;;;;;;;5109388;28;19916;-69
2023/10/12 12:23:47;;;;;;;;;;;;;;;;;;5113103;28;19976;-67
2023/10/12 12:26:14;;;;;;;;;;;;;;;;;;5108012;28;20018;-67
2023/10/12 12:28:43;;;;;;;;;;;;;;;;;;5110781;28;19911;-67
2023/10/12 12:31:10;;;;;;;;;;;;;;;;;;5110990;28;20419;-67
2023/10/12 12:33:41;;;;;;;;;;;;;;;;;;5112705;28;19965;-68
2023/10/12 12:36:10;;;;;;;;;;;;;;;;;;5111284;28;19919;-67
2023/10/12 12:41:23;;;;;;;;;;;;;;;;;;5113680;28;19915;-65
2023/10/12 12:43:49;;;;;;;;;;;;;;;;;;5113966;28;19912;-68
2023/10/12 12:46:16;;;;;;;;;;;;;;;;;;5111951;28;20368;-67
2023/10/12 12:48:45;;;;;;;;;;;;;;;;;;5111558;28;20018;-67
2023/10/12 12:51:11;;;;;;;;;;;;;;;;;;5092717;28;19929;-66
2023/10/12 12:53:38;;;;;;;;;;;;;;;;;;5092294;28;19908;-67
2023/10/12 12:56:04;;;;;;;;;;;;;;;;;;5103437;28;19916;-73
2023/10/12 12:58:32;;;;;;;;;;;;;;;;;;5112588;28;19907;-74
2023/10/12 13:01:00;;;;;;;;;;;;;;;;;;5114412;28;19967;-74
2023/10/12 13:03:28;;;;;;;;;;;;;;;;;;5114580;28;20253;-74
2023/10/12 13:05:54;;;;;;;;;;;;;;;;;;5114958;28;20287;-74
2023/10/12 13:08:20;;;;;;;;;;;;;;;;;;5114914;28;19927;-74
2023/10/12 13:10:46;;;;;;;;;;;;;;;;;;5114655;28;20007;-74
2023/10/12 13:13:12;;;;;;;;;;;;;;;;;;5113734;28;19943;-74
2023/10/12 13:15:41;;;;;;;;;;;;;;;;;;5113964;28;19924;-74
2023/10/12 13:18:14;;;;;;;;;;;;;;;;;;5113738;28;19915;-75
2023/10/12 13:20:40;;;;;;;;;;;;;;;;;;5114041;28;19958;-74
2023/10/12 13:23:12;;;;;;;;;;;;;;;;;;5114622;28;19907;-74
2023/10/12 13:25:38;;;;;;;;;;;;;;;;;;5096029;28;20368;-74
2023/10/12 13:28:04;;;;;;;;;;;;;;;;;;5114506;28;19914;-74
2023/10/12 13:30:30;;;;;;;;;;;;;;;;;;5114619;28;19908;-74
2023/10/12 13:32:59;;;;;;;;;;;;;;;;;;5114060;28;19908;-74
2023/10/12 13:35:31;;;;;;;;;;;;;;;;;;5114265;28;20337;-74
2023/10/12 13:37:57;;;;;;;;;;;;;;;;;;5114215;28;20375;-74
2023/10/12 13:40:23;;;;;;;;;;;;;;;;;;5114411;28;19915;-74
2023/10/12 13:42:49;;;;;;;;;;;;;;;;;;5114593;28;19915;-74
2023/10/12 13:45:18;;;;;;;;;;;;;;;;;;5113860;28;19998;-74
2023/10/12 13:47:46;;;;;;;;;;;;;;;;;;5096049;28;20287;-74
2023/10/12 13:50:12;;;;;;;;;;;;;;;;;;5114489;28;19912;-74
2023/10/12 13:52:38;;;;;;;;;;;;;;;;;;5095505;28;19907;-74
2023/10/12 13:55:07;;;;;;;;;;;;;;;;;;5113956;28;20018;-74
2023/10/12 13:57:33;;;;;;;;;;;;;;;;;;5114432;28;19908;-74
2023/10/12 13:59:59;;;;;;;;;;;;;;;;;;5113647;28;20374;-74
2023/10/12 14:02:25;;;;;;;;;;;;;;;;;;5114133;28;19904;-74
2023/10/12 14:04:51;;;;;;;;;;;;;;;;;;5095723;28;19954;-74
2023/10/12 14:07:16;;;;;;;;;;;;;;;;;;5113731;28;19910;-74
2023/10/12 14:09:43;;;;;;;;;;;;;;;;;;5095928;28;19908;-74
2023/10/12 14:12:10;;;;;;;;;;;;;;;;;;5114039;28;20002;-74
2023/10/12 14:14:36;;;;;;;;;;;;;;;;;;5094776;28;19911;-74
2023/10/12 14:17:04;;;;;;;;;;;;;;;;;;5112032;28;19908;-74
2023/10/12 14:19:30;;;;;;;;;;;;;;;;;;5111953;28;20381;-74
2023/10/12 14:21:59;;;;;;;;;;;;;;;;;;5111547;28;20003;-74
2023/10/12 14:24:24;;;;;;;;;;;;;;;;;;5111901;28;20053;-74
2023/10/12 14:26:51;;;;;;;;;;;;;;;;;;5094294;28;19964;-74
2023/10/12 14:29:18;;;;;;;;;;;;;;;;;;5112466;28;20002;-74
2023/10/12 14:31:45;;;;;;;;;;;;;;;;;;5113287;28;19992;-74
2023/10/12 14:34:13;;;;;;;;;;;;;;;;;;5113494;28;19907;-74
2023/10/12 14:36:39;;;;;;;;;;;;;;;;;;5093863;28;20274;-74
2023/10/12 14:39:06;;;;;;;;;;;;;;;;;;5093560;28;19904;-74
2023/10/12 14:41:35;;;;;;;;;;;;;;;;;;5113349;28;20245;-74
2023/10/12 14:44:01;;;;;;;;;;;;;;;;;;5097875;28;19911;-74
2023/10/12 14:46:29;;;;;;;;;;;;;;;;;;5116563;28;19904;-74
2023/10/12 14:48:55;;;;;;;;;;;;;;;;;;5116283;28;19904;-74
2023/10/12 14:51:25;;;;;;;;;;;;;;;;;;5117253;28;20360;-74
2023/10/12 14:53:51;;;;;;;;;;;;;;;;;;5117338;28;20419;-73
2023/10/12 14:56:17;;;;;;;;;;;;;;;;;;5117377;28;19994;-74
2023/10/12 14:58:43;;;;;;;;;;;;;;;;;;5117901;28;20345;-74
2023/10/12 15:01:10;;;;;;;;;;;;;;;;;;5098844;28;20475;-74
2023/10/12 15:03:36;;;;;;;;;;;;;;;;;;5116865;28;19961;-74
2023/10/12 15:06:02;;;;;;;;;;;;;;;;;;5098902;28;19931;-74
2023/10/12 15:08:28;;;;;;;;;;;;;;;;;;5117291;28;20358;-74
2023/10/12 15:10:55;;;;;;;;;;;;;;;;;;5116925;28;19907;-74
2023/10/12 15:13:22;;;;;;;;;;;;;;;;;;5117215;28;19908;-74
2023/10/12 15:15:48;;;;;;;;;;;;;;;;;;5117021;28;19939;-74
2023/10/12 15:18:14;;;;;;;;;;;;;;;;;;5116726;28;19908;-74
2023/10/12 15:20:44;;;;;;;;;;;;;;;;;;5117216;28;20006;-74
2023/10/12 15:23:10;;;;;;;;;;;;;;;;;;5116964;28;20356;-74
2023/10/12 15:25:36;;;;;;;;;;;;;;;;;;5116548;28;19961;-75
2023/10/12 15:28:02;;;;;;;;;;;;;;;;;;5116878;28;19919;-75
2023/10/12 15:30:28;;;;;;;;;;;;;;;;;;5116456;28;19908;-75
2023/10/12 15:32:59;;;;;;;;;;;;;;;;;;5116805;28;19977;-75
2023/10/12 15:35:26;;;;;;;547.22;300.65;;;;;;;;;;5115339;28;20829;-74
2023/10/12 15:37:52;;;;;;;;;;;;;;;;;;5116249;28;20027;-75
2023/10/12 15:40:20;;;;;;;;;;;;;;;;;;5117298;28;19904;-74
2023/10/12 15:42:46;;;;;;;;;;;;;;;;;;5116650;28;20267;-74
2023/10/12 15:45:12;;;;;;;;;;;;;;;;;;5116162;28;19908;-74
2023/10/12 15:47:39;;;;;;;;;;;;;;;;;;5116510;28;19910;-74
2023/10/12 15:50:05;;;;;;;;;;;;;;;;;;5116470;28;19904;-75
2023/10/12 15:52:31;;;;;;;;;;;;;;;;;;5116007;28;20480;-74
2023/10/12 15:54:57;;;;;;;;;;;;;;;;;;5116208;28;20010;-74
2023/10/12 15:57:23;;;;;;;;;;;;;;;;;;5116367;28;19911;-74
2023/10/12 15:59:49;;;;;;;;;;;;;;;;;;5097625;28;19915;-74
2023/10/12 16:02:15;;;;;;;;;;;;;;;;;;5116626;28;20386;-74
2023/10/12 16:04:45;;;;;;;;;;;;;;;;;;5116504;28;19939;-74
2023/10/12 16:07:17;;;;;;;;;;;;;;;;;;5115826;28;19903;-74
2023/10/12 16:09:43;;;;;;;;;;;;;;;;;;5116110;28;19908;-73
2023/10/12 16:12:09;;;;;;;;;;;;;;;;;;5115997;28;19903;-73
2023/10/12 16:14:35;;;;;;;;;;;;;;;;;;5115442;28;20355;-74
2023/10/12 16:17:01;;;;;;;;;;;;;;;;;;5097910;28;19995;-73
2023/10/12 16:19:27;;;;;;;;;;;;;;;;;;5115906;28;19904;-73
2023/10/12 16:21:55;;;;;;;;;;;;;;;;;;5115500;28;19908;-73
2023/10/12 16:24:23;;;;;;;;;;;;;;;;;;5097490;28;19916;-73
2023/10/12 16:26:49;;;;;;;;;;;;;;;;;;5115454;28;19908;-73
2023/10/12 16:29:15;;;;;;;;;;;;;;;;;;5115949;28;19911;-73
2023/10/12 16:31:43;;;;;;;;;;;;;;;;;;5115882;28;19915;-73
2023/10/12 16:34:09;;;;;;;;;;;;;;;;;;5115163;28;19914;-73
2023/10/12 16:36:35;;;;;;;;;;;;;;;;;;5115623;28;19907;-74
2023/10/12 16:39:03;;;;;;;;;;;;;;;;;;5115544;28;20374;-73
2023/10/12 16:41:28;;;;;;;;;;;;;;;;;;5115135;28;19950;-74
2023/10/12 16:43:55;;;;;;;;;;;;;;;;;;5097124;28;19938;-74
2023/10/12 16:46:21;;;;;;;;;;;;;;;;;;5115456;28;19957;-73
2023/10/12 16:48:48;;;;;;;;;;;;;;;;;;5096647;28;20342;-73
2023/10/12 16:51:14;;;;;;;;;;;;;;;;;;5115372;28;19939;-73
2023/10/12 16:53:40;;;;;;;;;;;;;;;;;;5115087;28;19950;-72
2023/10/12 16:56:09;;;;;;;;;;;;;;;;;;5096470;28;20328;-74
2023/10/12 16:58:35;;;;;;;;;;;;;;;;;;5115264;28;19911;-75
2023/10/12 17:01:01;;;;;;;;;;;;;;;;;;5115056;28;19904;-72
2023/10/12 17:03:29;;;;;;;;;;;;;;;;;;5113790;28;19914;-72
2023/10/12 17:05:55;;;;;;;;;;;;;;;;;;5114956;28;20404;-72
2023/10/12 17:08:21;;;;;;;;;;;;;;;;;;5114863;28;19957;-72
2023/10/12 17:10:47;;;;;;;;;;;;;;;;;;5096186;28;19907;-73
2023/10/12 17:13:15;;;;;;;;;;;;;;;;;;5114902;28;19911;-72
2023/10/12 17:15:41;;;;;;;;;;;;;;;;;;5114566;28;20386;-73
2023/10/12 17:18:07;;;;;;;;;;;;;;;;;;5114456;28;19904;-73
2023/10/12 17:20:33;;;;;;;;;;;;;;;;;;5114737;28;19911;-73
2023/10/12 17:22:59;;;;;;;;;;;;;;;;;;5114636;28;19903;-73
2023/10/12 17:25:25;;;;;;;;;;;;;;;;;;5114728;28;19957;-72
2023/10/12 17:27:53;;;;;;;;;;;;;;;;;;5114585;28;19904;-72
2023/10/12 17:30:20;;;;;;;;;;;;;;;;;;5114249;28;19998;-73
2023/10/12 17:32:46;;;;;;;;;;;;;;;;;;5114460;28;19926;-73
2023/10/12 17:35:12;;;;;;;;;;;;;;;;;;5114957;28;19915;-73
2023/10/12 17:37:39;;;;;;;;;;;;;;;;;;5114178;28;20413;-74
2023/10/12 17:40:05;;;;;;;;;;;;;;;;;;5114458;28;19903;-73
2023/10/12 17:42:32;;;;;;;;;;;;;;;;;;5114416;28;19904;-73
2023/10/12 17:44:58;;;;;;;;;;;;;;;;;;5114075;28;19994;-73
2023/10/12 17:47:24;;;;;;;;;;;;;;;;;;5096094;28;19957;-72
2023/10/12 17:49:50;;;;;;;;;;;;;;;;;;5114394;28;19908;-72
2023/10/12 17:52:19;;;;;;;;;;;;;;;;;;5113829;28;19911;-71
2023/10/12 17:54:45;;;;;;;;;;;;;;;;;;5113996;28;19916;-72
2023/10/12 17:57:11;;;;;;;;;;;;;;;;;;5114339;28;19908;-71
2023/10/12 17:59:38;;;;;;;;;;;;;;;;;;5113705;28;19911;-73
2023/10/12 18:04:13;;;;;;;;;;;;;;;;;;5111784;27;20288;-73
2023/10/12 18:06:39;;;;;;;;;;;;;;;;;;5110028;28;19919;-73
2023/10/12 18:09:06;;;;;;;;;;;;;;;;;;5111585;28;19915;-73
2023/10/12 18:11:33;;;;;;;;;;;;;;;;;;5111526;28;19912;-73
2023/10/12 18:13:59;;;;;;;;;;;;;;;;;;5111236;28;20391;-72
2023/10/12 18:16:27;;;;;;;;;;;;;;;;;;5111445;28;19916;-72
2023/10/12 18:18:53;;;;;;;;;;;;;;;;;;5111420;28;19942;-72
2023/10/12 18:21:19;;;;;;;;;;;;;;;;;;5110907;28;19974;-71
2023/10/12 18:23:45;;;;;;;;;;;;;;;;;;5109976;28;20373;-72
2023/10/12 18:26:13;;;;;;;;;;;;;;;;;;5111438;28;19912;-73
2023/10/12 18:28:39;;;;;;;;;;;;;;;;;;5111062;28;20257;-72
2023/10/12 18:32:51;;;;;;;;;;;;;;;;;;5132187;27;20018;-73
2023/10/12 18:35:17;;;;;;;;;;;;;;;;;;5131764;28;19962;-73
2023/10/12 18:37:43;;;;;;;;;;;;;;;;;;5132217;28;20379;-75
2023/10/12 18:40:16;;;;;;;;;;;;;;;;;;5132164;27;19939;-73
2023/10/12 18:42:42;;;;;;;;;;;;;;;;;;5130519;28;19908;-72
2023/10/12 18:45:08;;;;;;;;;;;;;;;;;;5132039;28;19922;-71
2023/10/12 18:47:34;;;;;;;;;;;;;;;;;;5131546;27;20389;-71
2023/10/12 18:50:01;;;;;;;;;;;;;;;;;;5131997;28;19998;-73
2023/10/12 18:52:27;;;;;;;;;;;;;;;;;;5130590;28;19916;-71
2023/10/12 18:54:55;;;;;;;;;;;;;;;;;;5131493;28;19993;-72